sensor_id;sensor_type;location;lat;lon;timestamp;P1;durP1;ratioP1;P2;durP2;ratioP2
68921;SDS011;55959;51.244;5.724;2022-09-13T00:00:48;2.35;;;2.17;;
68921;SDS011;55959;51.244;5.724;2022-09-13T00:03:15;2.85;;;2.45;;
68921;SDS011;55959;51.244;5.724;2022-09-13T00:05:41;2.53;;;2.33;;
68921;SDS011;55959;51.244;5.724;2022-09-13T00:08:07;3.47;;;3.28;;
68921;SDS011;55959;51.244;5.724;2022-09-13T00:10:35;3.08;;;2.88;;
68921;SDS011;55959;51.244;5.724;2022-09-13T00:13:04;3.17;;;2.88;;
68921;SDS011;55959;51.244;5.724;2022-09-13T00:15:32;3.10;;;2.63;;
68921;SDS011;55959;51.244;5.724;2022-09-13T00:17:58;2.88;;;2.60;;
68921;SDS011;55959;51.244;5.724;2022-09-13T00:20:24;2.97;;;2.78;;
68921;SDS011;55959;51.244;5.724;2022-09-13T00:22:50;4.00;;;2.53;;
68921;SDS011;55959;51.244;5.724;2022-09-13T00:25:16;2.80;;;2.60;;
68921;SDS011;55959;51.244;5.724;2022-09-13T00:27:42;3.35;;;2.92;;
68921;SDS011;55959;51.244;5.724;2022-09-13T00:30:09;3.47;;;2.60;;
68921;SDS011;55959;51.244;5.724;2022-09-13T00:32:36;2.92;;;2.67;;
68921;SDS011;55959;51.244;5.724;2022-09-13T00:35:03;2.78;;;2.35;;
68921;SDS011;55959;51.244;5.724;2022-09-13T00:37:31;2.67;;;2.38;;
68921;SDS011;55959;51.244;5.724;2022-09-13T00:39:58;2.55;;;2.35;;
68921;SDS011;55959;51.244;5.724;2022-09-13T00:42:28;2.80;;;2.60;;
68921;SDS011;55959;51.244;5.724;2022-09-13T00:44:59;4.15;;;2.60;;
68921;SDS011;55959;51.244;5.724;2022-09-13T00:47:39;2.60;;;2.40;;
68921;SDS011;55959;51.244;5.724;2022-09-13T00:55:47;2.75;;;2.17;;
68921;SDS011;55959;51.244;5.724;2022-09-13T00:58:35;2.85;;;2.20;;
68921;SDS011;55959;51.244;5.724;2022-09-13T01:01:12;2.33;;;2.05;;
68921;SDS011;55959;51.244;5.724;2022-09-13T01:03:40;2.40;;;2.20;;
68921;SDS011;55959;51.244;5.724;2022-09-13T01:06:10;2.53;;;2.28;;
68921;SDS011;55959;51.244;5.724;2022-09-13T01:08:47;3.28;;;2.60;;
68921;SDS011;55959;51.244;5.724;2022-09-13T01:11:25;2.70;;;2.50;;
68921;SDS011;55959;51.244;5.724;2022-09-13T01:14:20;2.33;;;2.10;;
68921;SDS011;55959;51.244;5.724;2022-09-13T01:16:48;2.50;;;2.30;;
68921;SDS011;55959;51.244;5.724;2022-09-13T01:19:14;2.25;;;2.05;;
68921;SDS011;55959;51.244;5.724;2022-09-13T01:28:30;2.35;;;2.15;;
68921;SDS011;55959;51.244;5.724;2022-09-13T01:34:24;2.13;;;1.98;;
68921;SDS011;55959;51.244;5.724;2022-09-13T01:37:21;2.38;;;2.15;;
68921;SDS011;55959;51.244;5.724;2022-09-13T01:40:16;2.45;;;2.22;;
68921;SDS011;55959;51.244;5.724;2022-09-13T02:02:30;2.58;;;2.35;;
68921;SDS011;55959;51.244;5.724;2022-09-13T02:05:45;2.97;;;2.25;;
68921;SDS011;55959;51.244;5.724;2022-09-13T02:08:20;3.38;;;2.17;;
68921;SDS011;55959;51.244;5.724;2022-09-13T02:10:57;3.13;;;2.47;;
68921;SDS011;55959;51.244;5.724;2022-09-13T02:13:32;2.35;;;2.15;;
68921;SDS011;55959;51.244;5.724;2022-09-13T02:16:08;2.30;;;2.10;;
68921;SDS011;55959;51.244;5.724;2022-09-13T02:18:58;2.55;;;2.35;;
68921;SDS011;55959;51.244;5.724;2022-09-13T02:21:32;3.63;;;2.40;;
68921;SDS011;55959;51.244;5.724;2022-09-13T02:24:15;3.55;;;2.30;;
68921;SDS011;55959;51.244;5.724;2022-09-13T02:26:47;2.40;;;2.20;;
68921;SDS011;55959;51.244;5.724;2022-09-13T02:29:18;2.47;;;2.28;;
68921;SDS011;55959;51.244;5.724;2022-09-13T02:32:02;2.40;;;2.20;;
68921;SDS011;55959;51.244;5.724;2022-09-13T02:34:40;2.30;;;2.10;;
68921;SDS011;55959;51.244;5.724;2022-09-13T02:37:14;2.60;;;2.40;;
68921;SDS011;55959;51.244;5.724;2022-09-13T02:39:41;2.75;;;2.50;;
68921;SDS011;55959;51.244;5.724;2022-09-13T02:42:14;2.40;;;2.20;;
68921;SDS011;55959;51.244;5.724;2022-09-13T02:44:45;2.25;;;2.05;;
68921;SDS011;55959;51.244;5.724;2022-09-13T02:52:47;2.13;;;1.90;;
68921;SDS011;55959;51.244;5.724;2022-09-13T02:55:59;2.13;;;1.92;;
68921;SDS011;55959;51.244;5.724;2022-09-13T03:01:44;2.83;;;2.10;;
68921;SDS011;55959;51.244;5.724;2022-09-13T03:04:21;2.15;;;2.00;;
68921;SDS011;55959;51.244;5.724;2022-09-13T03:06:48;2.55;;;2.25;;
68921;SDS011;55959;51.244;5.724;2022-09-13T03:09:14;2.72;;;2.20;;
68921;SDS011;55959;51.244;5.724;2022-09-13T03:12:00;2.20;;;2.00;;
68921;SDS011;55959;51.244;5.724;2022-09-13T03:37:21;2.75;;;1.90;;
68921;SDS011;55959;51.244;5.724;2022-09-13T03:40:08;2.20;;;1.75;;
68921;SDS011;55959;51.244;5.724;2022-09-13T03:42:57;1.70;;;1.60;;
68921;SDS011;55959;51.244;5.724;2022-09-13T03:46:12;3.42;;;2.08;;
68921;SDS011;55959;51.244;5.724;2022-09-13T03:48:44;2.72;;;2.17;;
68921;SDS011;55959;51.244;5.724;2022-09-13T03:51:10;2.33;;;2.13;;
68921;SDS011;55959;51.244;5.724;2022-09-13T03:53:45;3.75;;;2.60;;
68921;SDS011;55959;51.244;5.724;2022-09-13T03:56:20;3.50;;;2.50;;
68921;SDS011;55959;51.244;5.724;2022-09-13T03:58:46;2.45;;;1.90;;
68921;SDS011;55959;51.244;5.724;2022-09-13T04:01:12;3.45;;;2.33;;
68921;SDS011;55959;51.244;5.724;2022-09-13T04:03:43;2.67;;;2.47;;
68921;SDS011;55959;51.244;5.724;2022-09-13T04:06:09;2.92;;;2.63;;
68921;SDS011;55959;51.244;5.724;2022-09-13T04:08:35;2.35;;;2.15;;
68921;SDS011;55959;51.244;5.724;2022-09-13T04:11:01;3.03;;;2.28;;
68921;SDS011;55959;51.244;5.724;2022-09-13T04:13:26;2.20;;;2.00;;
68921;SDS011;55959;51.244;5.724;2022-09-13T04:15:53;2.20;;;2.00;;
68921;SDS011;55959;51.244;5.724;2022-09-13T04:18:19;2.65;;;2.15;;
68921;SDS011;55959;51.244;5.724;2022-09-13T04:20:52;1.88;;;1.77;;
68921;SDS011;55959;51.244;5.724;2022-09-13T04:23:22;2.72;;;2.10;;
68921;SDS011;55959;51.244;5.724;2022-09-13T04:25:49;3.03;;;2.08;;
68921;SDS011;55959;51.244;5.724;2022-09-13T04:28:18;1.80;;;1.70;;
68921;SDS011;55959;51.244;5.724;2022-09-13T04:30:46;2.17;;;1.98;;
68921;SDS011;55959;51.244;5.724;2022-09-13T04:33:13;2.92;;;1.80;;
68921;SDS011;55959;51.244;5.724;2022-09-13T04:35:41;2.00;;;1.83;;
68921;SDS011;55959;51.244;5.724;2022-09-13T04:38:07;2.38;;;2.10;;
68921;SDS011;55959;51.244;5.724;2022-09-13T04:40:33;2.60;;;2.38;;
68921;SDS011;55959;51.244;5.724;2022-09-13T04:43:01;3.75;;;2.90;;
68921;SDS011;55959;51.244;5.724;2022-09-13T04:45:28;3.22;;;2.50;;
68921;SDS011;55959;51.244;5.724;2022-09-13T04:47:54;2.75;;;2.53;;
68921;SDS011;55959;51.244;5.724;2022-09-13T04:50:20;2.67;;;2.47;;
68921;SDS011;55959;51.244;5.724;2022-09-13T04:52:47;2.70;;;2.50;;
68921;SDS011;55959;51.244;5.724;2022-09-13T04:55:14;3.70;;;2.80;;
68921;SDS011;55959;51.244;5.724;2022-09-13T04:57:40;3.15;;;2.30;;
68921;SDS011;55959;51.244;5.724;2022-09-13T05:00:07;2.20;;;2.00;;
68921;SDS011;55959;51.244;5.724;2022-09-13T05:02:34;2.28;;;2.08;;
68921;SDS011;55959;51.244;5.724;2022-09-13T05:05:00;2.10;;;1.90;;
68921;SDS011;55959;51.244;5.724;2022-09-13T05:07:26;2.35;;;2.13;;
68921;SDS011;55959;51.244;5.724;2022-09-13T05:09:51;2.45;;;2.00;;
68921;SDS011;55959;51.244;5.724;2022-09-13T05:12:17;2.08;;;1.90;;
68921;SDS011;55959;51.244;5.724;2022-09-13T05:14:43;2.65;;;2.10;;
68921;SDS011;55959;51.244;5.724;2022-09-13T05:17:08;3.28;;;2.20;;
68921;SDS011;55959;51.244;5.724;2022-09-13T05:19:34;1.92;;;1.83;;
68921;SDS011;55959;51.244;5.724;2022-09-13T05:22:00;3.63;;;2.10;;
68921;SDS011;55959;51.244;5.724;2022-09-13T05:24:26;2.28;;;2.08;;
68921;SDS011;55959;51.244;5.724;2022-09-13T05:26:52;2.28;;;2.08;;
68921;SDS011;55959;51.244;5.724;2022-09-13T05:29:18;1.73;;;1.63;;
68921;SDS011;55959;51.244;5.724;2022-09-13T05:31:44;3.00;;;1.80;;
68921;SDS011;55959;51.244;5.724;2022-09-13T05:34:11;2.40;;;1.88;;
68921;SDS011;55959;51.244;5.724;2022-09-13T05:36:41;2.58;;;2.20;;
68921;SDS011;55959;51.244;5.724;2022-09-13T05:39:11;1.95;;;1.85;;
68921;SDS011;55959;51.244;5.724;2022-09-13T05:41:39;2.25;;;1.80;;
68921;SDS011;55959;51.244;5.724;2022-09-13T05:44:05;2.10;;;1.90;;
68921;SDS011;55959;51.244;5.724;2022-09-13T05:46:31;2.80;;;2.25;;
68921;SDS011;55959;51.244;5.724;2022-09-13T05:48:57;2.08;;;1.98;;
68921;SDS011;55959;51.244;5.724;2022-09-13T05:51:23;3.05;;;2.10;;
68921;SDS011;55959;51.244;5.724;2022-09-13T05:53:50;2.03;;;1.90;;
68921;SDS011;55959;51.244;5.724;2022-09-13T05:56:19;2.30;;;2.10;;
68921;SDS011;55959;51.244;5.724;2022-09-13T05:58:48;2.20;;;2.00;;
68921;SDS011;55959;51.244;5.724;2022-09-13T06:01:16;2.33;;;2.13;;
68921;SDS011;55959;51.244;5.724;2022-09-13T06:03:47;2.60;;;1.90;;
68921;SDS011;55959;51.244;5.724;2022-09-13T06:06:15;2.40;;;2.20;;
68921;SDS011;55959;51.244;5.724;2022-09-13T06:08:41;2.42;;;2.22;;
68921;SDS011;55959;51.244;5.724;2022-09-13T06:11:08;2.05;;;1.85;;
68921;SDS011;55959;51.244;5.724;2022-09-13T06:13:37;2.60;;;2.17;;
68921;SDS011;55959;51.244;5.724;2022-09-13T06:16:04;2.47;;;2.28;;
68921;SDS011;55959;51.244;5.724;2022-09-13T06:18:33;2.65;;;2.30;;
68921;SDS011;55959;51.244;5.724;2022-09-13T06:21:01;1.80;;;1.70;;
68921;SDS011;55959;51.244;5.724;2022-09-13T06:23:36;3.45;;;2.20;;
68921;SDS011;55959;51.244;5.724;2022-09-13T06:26:10;2.33;;;2.13;;
68921;SDS011;55959;51.244;5.724;2022-09-13T06:28:39;2.83;;;2.38;;
68921;SDS011;55959;51.244;5.724;2022-09-13T06:31:09;2.35;;;2.15;;
68921;SDS011;55959;51.244;5.724;2022-09-13T06:33:38;2.28;;;2.08;;
68921;SDS011;55959;51.244;5.724;2022-09-13T06:36:07;2.63;;;2.00;;
68921;SDS011;55959;51.244;5.724;2022-09-13T06:38:45;3.40;;;2.38;;
68921;SDS011;55959;51.244;5.724;2022-09-13T06:41:16;3.00;;;1.95;;
68921;SDS011;55959;51.244;5.724;2022-09-13T06:43:44;3.38;;;2.22;;
68921;SDS011;55959;51.244;5.724;2022-09-13T06:46:15;2.30;;;1.80;;
68921;SDS011;55959;51.244;5.724;2022-09-13T06:48:44;2.22;;;1.92;;
68921;SDS011;55959;51.244;5.724;2022-09-13T06:51:11;2.70;;;1.80;;
68921;SDS011;55959;51.244;5.724;2022-09-13T06:53:40;2.17;;;1.85;;
68921;SDS011;55959;51.244;5.724;2022-09-13T06:56:12;2.33;;;2.00;;
68921;SDS011;55959;51.244;5.724;2022-09-13T06:58:43;1.80;;;1.70;;
68921;SDS011;55959;51.244;5.724;2022-09-13T07:01:15;2.85;;;1.98;;
68921;SDS011;55959;51.244;5.724;2022-09-13T07:03:45;2.35;;;1.88;;
68921;SDS011;55959;51.244;5.724;2022-09-13T07:06:15;2.72;;;1.83;;
68921;SDS011;55959;51.244;5.724;2022-09-13T07:08:46;2.00;;;1.80;;
68921;SDS011;55959;51.244;5.724;2022-09-13T07:11:13;3.33;;;2.03;;
68921;SDS011;55959;51.244;5.724;2022-09-13T07:13:46;2.05;;;1.85;;
68921;SDS011;55959;51.244;5.724;2022-09-13T07:16:23;2.13;;;1.90;;
68921;SDS011;55959;51.244;5.724;2022-09-13T07:18:58;2.63;;;2.13;;
68921;SDS011;55959;51.244;5.724;2022-09-13T07:21:30;2.10;;;1.90;;
68921;SDS011;55959;51.244;5.724;2022-09-13T07:23:56;2.60;;;2.40;;
68921;SDS011;55959;51.244;5.724;2022-09-13T07:26:23;2.30;;;2.10;;
68921;SDS011;55959;51.244;5.724;2022-09-13T07:28:54;2.10;;;1.90;;
68921;SDS011;55959;51.244;5.724;2022-09-13T07:31:24;2.38;;;1.88;;
68921;SDS011;55959;51.244;5.724;2022-09-13T07:33:56;2.53;;;2.30;;
68921;SDS011;55959;51.244;5.724;2022-09-13T07:36:24;2.28;;;2.08;;
68921;SDS011;55959;51.244;5.724;2022-09-13T07:38:52;3.78;;;2.33;;
68921;SDS011;55959;51.244;5.724;2022-09-13T07:41:19;3.55;;;2.38;;
68921;SDS011;55959;51.244;5.724;2022-09-13T07:43:46;2.22;;;2.10;;
68921;SDS011;55959;51.244;5.724;2022-09-13T07:46:14;1.83;;;1.73;;
68921;SDS011;55959;51.244;5.724;2022-09-13T07:48:43;2.00;;;1.77;;
68921;SDS011;55959;51.244;5.724;2022-09-13T07:53:46;2.80;;;1.67;;
68921;SDS011;55959;51.244;5.724;2022-09-13T07:56:17;2.38;;;2.08;;
68921;SDS011;55959;51.244;5.724;2022-09-13T07:58:46;1.48;;;1.33;;
68921;SDS011;55959;51.244;5.724;2022-09-13T08:01:15;2.70;;;2.10;;
68921;SDS011;55959;51.244;5.724;2022-09-13T08:03:51;2.00;;;1.80;;
68921;SDS011;55959;51.244;5.724;2022-09-13T08:06:20;2.03;;;1.83;;
68921;SDS011;55959;51.244;5.724;2022-09-13T08:08:47;3.30;;;2.42;;
68921;SDS011;55959;51.244;5.724;2022-09-13T08:11:14;3.10;;;2.30;;
68921;SDS011;55959;51.244;5.724;2022-09-13T08:13:46;2.28;;;2.00;;
68921;SDS011;55959;51.244;5.724;2022-09-13T08:16:13;2.28;;;1.88;;
68921;SDS011;55959;51.244;5.724;2022-09-13T08:18:43;2.65;;;2.08;;
68921;SDS011;55959;51.244;5.724;2022-09-13T08:21:10;2.60;;;2.30;;
68921;SDS011;55959;51.244;5.724;2022-09-13T08:23:36;3.10;;;2.80;;
68921;SDS011;55959;51.244;5.724;2022-09-13T08:26:03;2.85;;;2.50;;
68921;SDS011;55959;51.244;5.724;2022-09-13T08:28:30;3.45;;;2.30;;
68921;SDS011;55959;51.244;5.724;2022-09-13T08:31:01;2.28;;;2.08;;
68921;SDS011;55959;51.244;5.724;2022-09-13T08:33:32;3.78;;;2.58;;
68921;SDS011;55959;51.244;5.724;2022-09-13T08:35:58;2.50;;;2.25;;
68921;SDS011;55959;51.244;5.724;2022-09-13T08:38:24;4.75;;;4.05;;
68921;SDS011;55959;51.244;5.724;2022-09-13T08:40:52;6.65;;;5.30;;
68921;SDS011;55959;51.244;5.724;2022-09-13T08:48:49;7.25;;;6.55;;
68921;SDS011;55959;51.244;5.724;2022-09-13T08:53:59;5.60;;;5.07;;
68921;SDS011;55959;51.244;5.724;2022-09-13T08:59:23;4.75;;;4.35;;
68921;SDS011;55959;51.244;5.724;2022-09-13T09:02:24;6.70;;;5.57;;
68921;SDS011;55959;51.244;5.724;2022-09-13T09:05:49;7.53;;;6.47;;
68921;SDS011;55959;51.244;5.724;2022-09-13T09:11:02;6.45;;;5.65;;
68921;SDS011;55959;51.244;5.724;2022-09-13T09:13:50;5.80;;;5.20;;
68921;SDS011;55959;51.244;5.724;2022-09-13T09:16:36;5.68;;;5.07;;
68921;SDS011;55959;51.244;5.724;2022-09-13T09:22:15;5.55;;;5.00;;
68921;SDS011;55959;51.244;5.724;2022-09-13T09:24:48;4.47;;;4.07;;
68921;SDS011;55959;51.244;5.724;2022-09-13T09:27:19;6.15;;;5.55;;
68921;SDS011;55959;51.244;5.724;2022-09-13T09:29:54;5.60;;;5.10;;
68921;SDS011;55959;51.244;5.724;2022-09-13T09:38:18;5.50;;;5.00;;
68921;SDS011;55959;51.244;5.724;2022-09-13T09:41:12;4.90;;;4.20;;
68921;SDS011;55959;51.244;5.724;2022-09-13T09:44:09;6.38;;;4.43;;
68921;SDS011;55959;51.244;5.724;2022-09-13T09:47:05;4.93;;;4.43;;
68921;SDS011;55959;51.244;5.724;2022-09-13T09:49:53;8.77;;;6.28;;
68921;SDS011;55959;51.244;5.724;2022-09-13T09:55:40;5.95;;;5.35;;
68921;SDS011;55959;51.244;5.724;2022-09-13T09:58:42;6.28;;;5.53;;
68921;SDS011;55959;51.244;5.724;2022-09-13T10:06:36;4.90;;;4.50;;
68921;SDS011;55959;51.244;5.724;2022-09-13T10:17:17;3.90;;;3.60;;
68921;SDS011;55959;51.244;5.724;2022-09-13T10:20:32;5.60;;;5.03;;
68921;SDS011;55959;51.244;5.724;2022-09-13T10:22:37;4.45;;;3.63;;
68921;SDS011;55959;51.244;5.724;2022-09-13T10:27:52;5.50;;;4.45;;
68921;SDS011;55959;51.244;5.724;2022-09-13T10:33:05;6.82;;;6.13;;
68921;SDS011;55959;51.244;5.724;2022-09-13T10:35:48;6.13;;;5.35;;
68921;SDS011;55959;51.244;5.724;2022-09-13T10:41:04;5.00;;;4.50;;
68921;SDS011;55959;51.244;5.724;2022-09-13T10:43:45;5.72;;;5.13;;
68921;SDS011;55959;51.244;5.724;2022-09-13T10:46:13;5.47;;;4.97;;
68921;SDS011;55959;51.244;5.724;2022-09-13T10:48:47;5.28;;;4.78;;
68921;SDS011;55959;51.244;5.724;2022-09-13T10:53:46;5.38;;;4.20;;
68921;SDS011;55959;51.244;5.724;2022-09-13T10:56:23;5.22;;;4.53;;
68921;SDS011;55959;51.244;5.724;2022-09-13T10:58:50;5.00;;;4.45;;
68921;SDS011;55959;51.244;5.724;2022-09-13T11:01:55;3.60;;;3.30;;
68921;SDS011;55959;51.244;5.724;2022-09-13T11:16:34;3.95;;;3.65;;
68921;SDS011;55959;51.244;5.724;2022-09-13T11:19:35;4.72;;;4.28;;
68921;SDS011;55959;51.244;5.724;2022-09-13T11:22:32;4.75;;;3.70;;
68921;SDS011;55959;51.244;5.724;2022-09-13T11:28:08;2.50;;;2.30;;
68921;SDS011;55959;51.244;5.724;2022-09-13T11:31:15;2.92;;;2.67;;
68921;SDS011;55959;51.244;5.724;2022-09-13T11:33:55;2.88;;;2.13;;
68921;SDS011;55959;51.244;5.724;2022-09-13T11:57:34;4.68;;;4.15;;
68921;SDS011;55959;51.244;5.724;2022-09-13T12:00:06;3.58;;;3.05;;
68921;SDS011;55959;51.244;5.724;2022-09-13T12:05:39;3.33;;;2.85;;
68921;SDS011;55959;51.244;5.724;2022-09-13T12:08:15;3.20;;;2.90;;
68921;SDS011;55959;51.244;5.724;2022-09-13T12:10:58;2.75;;;2.30;;
68921;SDS011;55959;51.244;5.724;2022-09-13T12:13:50;3.72;;;2.22;;
68921;SDS011;55959;51.244;5.724;2022-09-13T12:16:21;2.35;;;2.15;;
68921;SDS011;55959;51.244;5.724;2022-09-13T12:19:16;4.45;;;3.38;;
68921;SDS011;55959;51.244;5.724;2022-09-13T12:21:48;3.38;;;3.08;;
68921;SDS011;55959;51.244;5.724;2022-09-13T12:24:17;2.35;;;2.15;;
68921;SDS011;55959;51.244;5.724;2022-09-13T12:29:52;4.18;;;3.60;;
68921;SDS011;55959;51.244;5.724;2022-09-13T12:32:22;5.15;;;4.65;;
68921;SDS011;55959;51.244;5.724;2022-09-13T12:58:46;4.97;;;4.57;;
68921;SDS011;55959;51.244;5.724;2022-09-13T13:01:13;4.93;;;4.00;;
68921;SDS011;55959;51.244;5.724;2022-09-13T13:09:56;4.53;;;4.05;;
68921;SDS011;55959;51.244;5.724;2022-09-13T13:12:07;4.35;;;3.03;;
68921;SDS011;55959;51.244;5.724;2022-09-13T13:28:48;5.85;;;5.18;;
68921;SDS011;55959;51.244;5.724;2022-09-13T13:34:02;6.55;;;5.88;;
68921;SDS011;55959;51.244;5.724;2022-09-13T13:36:48;5.20;;;4.70;;
68921;SDS011;55959;51.244;5.724;2022-09-13T13:41:51;5.90;;;4.75;;
68921;SDS011;55959;51.244;5.724;2022-09-13T13:46:52;5.32;;;4.72;;
68921;SDS011;55959;51.244;5.724;2022-09-13T13:57:31;4.72;;;3.80;;
68921;SDS011;55959;51.244;5.724;2022-09-13T14:00:05;4.68;;;4.28;;
68921;SDS011;55959;51.244;5.724;2022-09-13T14:08:25;5.75;;;5.10;;
68921;SDS011;55959;51.244;5.724;2022-09-13T14:20:28;4.28;;;3.88;;
68921;SDS011;55959;51.244;5.724;2022-09-13T14:23:10;3.85;;;3.38;;
68921;SDS011;55959;51.244;5.724;2022-09-13T14:25:43;2.92;;;2.67;;
68921;SDS011;55959;51.244;5.724;2022-09-13T14:28:14;4.07;;;3.55;;
68921;SDS011;55959;51.244;5.724;2022-09-13T14:30:44;4.50;;;3.40;;
68921;SDS011;55959;51.244;5.724;2022-09-13T14:33:32;3.55;;;3.20;;
68921;SDS011;55959;51.244;5.724;2022-09-13T14:38:50;3.63;;;2.97;;
68921;SDS011;55959;51.244;5.724;2022-09-13T14:41:28;3.50;;;3.20;;
68921;SDS011;55959;51.244;5.724;2022-09-13T14:44:12;3.58;;;3.28;;
68921;SDS011;55959;51.244;5.724;2022-09-13T14:46:48;3.58;;;2.83;;
68921;SDS011;55959;51.244;5.724;2022-09-13T14:49:33;3.33;;;2.80;;
68921;SDS011;55959;51.244;5.724;2022-09-13T14:52:05;4.05;;;3.30;;
68921;SDS011;55959;51.244;5.724;2022-09-13T14:54:49;2.97;;;2.67;;
68921;SDS011;55959;51.244;5.724;2022-09-13T14:59:53;5.78;;;2.72;;
68921;SDS011;55959;51.244;5.724;2022-09-13T15:02:26;5.10;;;2.58;;
68921;SDS011;55959;51.244;5.724;2022-09-13T15:04:56;2.65;;;2.38;;
68921;SDS011;55959;51.244;5.724;2022-09-13T15:10:19;2.83;;;2.42;;
68921;SDS011;55959;51.244;5.724;2022-09-13T15:18:05;3.40;;;3.10;;
68921;SDS011;55959;51.244;5.724;2022-09-13T15:20:44;4.38;;;2.90;;
68921;SDS011;55959;51.244;5.724;2022-09-13T15:23:17;3.47;;;3.17;;
68921;SDS011;55959;51.244;5.724;2022-09-13T15:25:56;4.40;;;3.47;;
68921;SDS011;55959;51.244;5.724;2022-09-13T15:28:55;4.07;;;3.67;;
68921;SDS011;55959;51.244;5.724;2022-09-13T15:31:26;4.20;;;3.80;;
68921;SDS011;55959;51.244;5.724;2022-09-13T15:36:41;3.58;;;3.28;;
68921;SDS011;55959;51.244;5.724;2022-09-13T15:39:15;3.97;;;3.50;;
68921;SDS011;55959;51.244;5.724;2022-09-13T15:41:54;3.45;;;3.15;;
68921;SDS011;55959;51.244;5.724;2022-09-13T15:44:24;3.47;;;3.15;;
68921;SDS011;55959;51.244;5.724;2022-09-13T15:46:54;4.93;;;3.97;;
68921;SDS011;55959;51.244;5.724;2022-09-13T15:49:24;3.50;;;3.20;;
68921;SDS011;55959;51.244;5.724;2022-09-13T15:51:54;3.40;;;3.08;;
68921;SDS011;55959;51.244;5.724;2022-09-13T15:54:33;3.30;;;3.10;;
68921;SDS011;55959;51.244;5.724;2022-09-13T15:57:06;4.15;;;2.97;;
68921;SDS011;55959;51.244;5.724;2022-09-13T15:59:38;3.03;;;2.72;;
68921;SDS011;55959;51.244;5.724;2022-09-13T16:05:00;2.22;;;2.00;;
68921;SDS011;55959;51.244;5.724;2022-09-13T16:07:26;2.50;;;2.30;;
68921;SDS011;55959;51.244;5.724;2022-09-13T16:09:52;2.60;;;2.40;;
68921;SDS011;55959;51.244;5.724;2022-09-13T16:12:18;2.60;;;2.40;;
68921;SDS011;55959;51.244;5.724;2022-09-13T16:14:47;2.85;;;2.60;;
68921;SDS011;55959;51.244;5.724;2022-09-13T16:17:25;3.70;;;3.08;;
68921;SDS011;55959;51.244;5.724;2022-09-13T16:19:52;3.90;;;3.45;;
68921;SDS011;55959;51.244;5.724;2022-09-13T16:22:19;3.65;;;2.95;;
68921;SDS011;55959;51.244;5.724;2022-09-13T16:24:45;3.72;;;2.45;;
68921;SDS011;55959;51.244;5.724;2022-09-13T16:27:11;3.20;;;2.90;;
68921;SDS011;55959;51.244;5.724;2022-09-13T16:29:40;3.10;;;2.80;;
68921;SDS011;55959;51.244;5.724;2022-09-13T16:32:06;3.42;;;2.90;;
68921;SDS011;55959;51.244;5.724;2022-09-13T16:34:32;3.50;;;3.20;;
68921;SDS011;55959;51.244;5.724;2022-09-13T16:36:58;4.15;;;3.67;;
68921;SDS011;55959;51.244;5.724;2022-09-13T16:39:23;4.10;;;3.80;;
68921;SDS011;55959;51.244;5.724;2022-09-13T16:41:49;4.78;;;4.38;;
68921;SDS011;55959;51.244;5.724;2022-09-13T16:44:15;4.20;;;3.90;;
68921;SDS011;55959;51.244;5.724;2022-09-13T16:46:41;4.18;;;3.78;;
68921;SDS011;55959;51.244;5.724;2022-09-13T16:49:07;5.53;;;4.45;;
68921;SDS011;55959;51.244;5.724;2022-09-13T16:51:34;5.45;;;4.60;;
68921;SDS011;55959;51.244;5.724;2022-09-13T16:54:00;8.68;;;5.15;;
68921;SDS011;55959;51.244;5.724;2022-09-13T16:56:27;6.13;;;4.63;;
68921;SDS011;55959;51.244;5.724;2022-09-13T16:58:54;5.00;;;4.28;;
68921;SDS011;55959;51.244;5.724;2022-09-13T17:01:21;4.45;;;4.13;;
68921;SDS011;55959;51.244;5.724;2022-09-13T17:03:49;5.82;;;4.13;;
68921;SDS011;55959;51.244;5.724;2022-09-13T17:06:16;4.18;;;3.78;;
68921;SDS011;55959;51.244;5.724;2022-09-13T17:08:48;4.30;;;3.90;;
68921;SDS011;55959;51.244;5.724;2022-09-13T17:11:26;4.30;;;3.92;;
68921;SDS011;55959;51.244;5.724;2022-09-13T17:13:54;4.85;;;4.28;;
68921;SDS011;55959;51.244;5.724;2022-09-13T17:16:31;4.75;;;3.88;;
68921;SDS011;55959;51.244;5.724;2022-09-13T17:19:05;4.38;;;3.88;;
68921;SDS011;55959;51.244;5.724;2022-09-13T17:21:34;4.88;;;4.43;;
68921;SDS011;55959;51.244;5.724;2022-09-13T17:24:00;5.30;;;4.35;;
68921;SDS011;55959;51.244;5.724;2022-09-13T17:26:26;4.22;;;3.92;;
68921;SDS011;55959;51.244;5.724;2022-09-13T17:28:52;4.55;;;4.22;;
68921;SDS011;55959;51.244;5.724;2022-09-13T17:31:18;4.18;;;3.80;;
68921;SDS011;55959;51.244;5.724;2022-09-13T17:33:45;5.45;;;4.05;;
68921;SDS011;55959;51.244;5.724;2022-09-13T17:36:11;4.90;;;4.43;;
68921;SDS011;55959;51.244;5.724;2022-09-13T17:38:38;4.90;;;4.40;;
68921;SDS011;55959;51.244;5.724;2022-09-13T17:41:13;4.53;;;4.13;;
68921;SDS011;55959;51.244;5.724;2022-09-13T17:43:41;4.93;;;4.43;;
68921;SDS011;55959;51.244;5.724;2022-09-13T17:46:15;5.55;;;4.97;;
68921;SDS011;55959;51.244;5.724;2022-09-13T17:48:45;5.43;;;4.93;;
68921;SDS011;55959;51.244;5.724;2022-09-13T17:51:15;5.63;;;5.13;;
68921;SDS011;55959;51.244;5.724;2022-09-13T17:54:00;5.30;;;4.80;;
68921;SDS011;55959;51.244;5.724;2022-09-13T17:56:30;5.15;;;4.65;;
68921;SDS011;55959;51.244;5.724;2022-09-13T17:59:04;7.85;;;4.95;;
68921;SDS011;55959;51.244;5.724;2022-09-13T18:01:39;5.80;;;4.50;;
68921;SDS011;55959;51.244;5.724;2022-09-13T18:04:14;4.70;;;4.30;;
68921;SDS011;55959;51.244;5.724;2022-09-13T18:06:41;7.70;;;5.20;;
68921;SDS011;55959;51.244;5.724;2022-09-13T18:09:11;5.50;;;5.00;;
68921;SDS011;55959;51.244;5.724;2022-09-13T18:11:38;5.25;;;4.85;;
68921;SDS011;55959;51.244;5.724;2022-09-13T18:14:05;5.07;;;4.68;;
68921;SDS011;55959;51.244;5.724;2022-09-13T18:16:35;5.43;;;4.93;;
68921;SDS011;55959;51.244;5.724;2022-09-13T18:19:01;8.30;;;5.30;;
68921;SDS011;55959;51.244;5.724;2022-09-13T18:21:27;5.32;;;4.80;;
68921;SDS011;55959;51.244;5.724;2022-09-13T18:23:54;5.40;;;4.93;;
68921;SDS011;55959;51.244;5.724;2022-09-13T18:26:22;6.18;;;5.57;;
68921;SDS011;55959;51.244;5.724;2022-09-13T18:28:53;7.63;;;6.07;;
68921;SDS011;55959;51.244;5.724;2022-09-13T18:31:26;6.40;;;5.80;;
68921;SDS011;55959;51.244;5.724;2022-09-13T18:33:54;6.22;;;5.63;;
68921;SDS011;55959;51.244;5.724;2022-09-13T18:36:25;5.70;;;5.20;;
68921;SDS011;55959;51.244;5.724;2022-09-13T18:38:52;5.80;;;5.30;;
68921;SDS011;55959;51.244;5.724;2022-09-13T18:41:24;5.32;;;4.68;;
68921;SDS011;55959;51.244;5.724;2022-09-13T18:43:52;6.18;;;5.63;;
68921;SDS011;55959;51.244;5.724;2022-09-13T18:46:20;5.75;;;4.93;;
68921;SDS011;55959;51.244;5.724;2022-09-13T18:48:49;6.63;;;5.40;;
68921;SDS011;55959;51.244;5.724;2022-09-13T18:51:19;5.78;;;5.28;;
68921;SDS011;55959;51.244;5.724;2022-09-13T18:53:48;5.70;;;5.20;;
68921;SDS011;55959;51.244;5.724;2022-09-13T18:56:16;6.20;;;5.60;;
68921;SDS011;55959;51.244;5.724;2022-09-13T18:58:46;5.95;;;5.40;;
68921;SDS011;55959;51.244;5.724;2022-09-13T19:01:13;6.60;;;5.85;;
68921;SDS011;55959;51.244;5.724;2022-09-13T19:03:50;6.35;;;5.75;;
68921;SDS011;55959;51.244;5.724;2022-09-13T19:06:26;5.80;;;5.30;;
68921;SDS011;55959;51.244;5.724;2022-09-13T19:09:01;6.15;;;5.55;;
68921;SDS011;55959;51.244;5.724;2022-09-13T19:11:43;6.20;;;5.60;;
68921;SDS011;55959;51.244;5.724;2022-09-13T19:14:19;5.93;;;5.43;;
68921;SDS011;55959;51.244;5.724;2022-09-13T19:16:54;6.38;;;5.78;;
68921;SDS011;55959;51.244;5.724;2022-09-13T19:19:27;6.20;;;5.60;;
68921;SDS011;55959;51.244;5.724;2022-09-13T19:21:54;6.63;;;6.05;;
68921;SDS011;55959;51.244;5.724;2022-09-13T19:24:20;5.70;;;5.25;;
68921;SDS011;55959;51.244;5.724;2022-09-13T19:26:47;6.00;;;5.50;;
68921;SDS011;55959;51.244;5.724;2022-09-13T19:29:16;5.93;;;5.28;;
68921;SDS011;55959;51.244;5.724;2022-09-13T19:31:45;5.88;;;5.38;;
68921;SDS011;55959;51.244;5.724;2022-09-13T19:34:13;6.65;;;6.05;;